This is the latest recevied weather packets stored in our database for station/object YF9UAG-17. If no packets are shown the sender has not sent any weather packets the latest 10 day(s).
| Time | Temp. | Humidity | Pressure | Rain* | Wind** | Luminosity | Snow |
|---|---|---|---|---|---|---|---|
| 1787569031 | 30.56° C | 49% | 1032.2 hPa | - | - | - | - |
| 1787568428 | 30.56° C | 49% | 1032.1 hPa | - | - | - | - |
| 1787567825 | 30° C | 50% | 1032.2 hPa | - | - | - | - |
| 1787567222 | 30.56° C | 48% | 1032.1 hPa | - | - | - | - |
| 1787566619 | 30.56° C | 48% | 1032 hPa | - | - | - | - |
| 1787566015 | 30.56° C | 48% | 1031.9 hPa | - | - | - | - |
| 1787565411 | 31.11° C | 48% | 1031.8 hPa | - | - | - | - |
| 1787564808 | 31.11° C | 48% | 1031.7 hPa | - | - | - | - |
| 1787564205 | 31.67° C | 51% | 1031.6 hPa | - | - | - | - |
| 1787563601 | 31.67° C | 52% | 1031.4 hPa | - | - | - | - |
| 1787562998 | 32.22° C | 53% | 1031.3 hPa | - | - | - | - |
| 1787562394 | 32.22° C | 53% | 1031.2 hPa | - | - | - | - |
| 1787561791 | 32.22° C | 52% | 1031 hPa | - | - | - | - |
| 1787561188 | 31.67° C | 52% | 1030.9 hPa | - | - | - | - |
| 1787560585 | 31.11° C | 51% | 1030.8 hPa | - | - | - | - |
| 1787559982 | 32.22° C | 48% | 1030.7 hPa | - | - | - | - |
| 1787559379 | 31.11° C | 49% | 1030.6 hPa | - | - | - | - |
| 1787558776 | 31.11° C | 48% | 1030.5 hPa | - | - | - | - |
| 1787558173 | 30.56° C | 49% | 1030.5 hPa | - | - | - | - |
| 1787557569 | 31.11° C | 49% | 1030.5 hPa | - | - | - | - |
| 1787556966 | 32.22° C | 47% | 1030.5 hPa | - | - | - | - |
| 1787556363 | 31.11° C | 49% | 1030.5 hPa | - | - | - | - |
| 1787555758 | 30.56° C | 50% | 1030.6 hPa | - | - | - | - |
| 1787555154 | 31.11° C | 49% | 1030.8 hPa | - | - | - | - |
| 1787554551 | 31.11° C | 49% | 1030.8 hPa | - | - | - | - |
* Rain since midnight (hover to see other rain measurements)
** Current wind speed in m/s (hover to see current wind gust speed)